Time;durP1;ratioP1;P1;durP2;ratioP2;P2;SDS_P1;SDS_P2;PMS_P1;PMS_P2;Temp;Humidity;BMP_temperature;BMP_pressure;BME280_temperature;BME280_humidity;BME280_pressure;Samples;Min_cycle;Max_cycle;Signal;HPM_P1;HPM_P2
2021/11/15 00:01:06;;;;;;;;;;;;;;;8.04;100.00;100066.63;5031972;28;20448;-66
2021/11/15 00:03:33;;;;;;;;;;;;;;;7.99;100.00;100066.66;5060664;28;20374;-65
2021/11/15 00:05:59;;;;;;;;;;;;;;;8.21;100.00;100077.69;5029264;28;19924;-65
2021/11/15 00:08:26;;;;;;;;;;;;;;;8.16;100.00;100071.69;5050565;28;20030;-65
2021/11/15 00:10:51;;;;;;;;;;;;;;;8.23;100.00;100065.66;5048801;28;20319;-65
2021/11/15 00:13:16;;;;;;;;;;;;;;;8.13;100.00;100064.03;5047237;28;19921;-65
2021/11/15 00:15:42;;;;;;;;;;;;;;;8.12;100.00;100070.03;5047429;28;19916;-65
2021/11/15 00:18:07;;;;;;;;;;;;;;;7.92;100.00;100076.09;5048518;28;19921;-65
2021/11/15 00:20:33;;;;;;;;;;;;;;;8.09;100.00;100077.72;5042995;28;19931;-65
2021/11/15 00:22:58;;;;;;;;;;;;;;;8.22;100.00;100074.25;5046503;28;19922;-65
2021/11/15 00:25:24;;;;;;;;;;;;;;;7.78;100.00;100061.59;5049231;28;19943;-68
2021/11/15 00:27:49;;;;;;;;;;;;;;;8.21;100.00;100075.13;5049532;28;19917;-65
2021/11/15 00:30:15;;;;;;;;;;;;;;;8.71;100.00;100067.97;5051576;28;20513;-65
2021/11/15 00:32:42;;;;;;;;;;;;;;;9.05;100.00;100050.56;5054032;28;19916;-66
2021/11/15 00:35:11;;;;;;;;;;;;;;;8.87;100.00;100048.16;5051389;28;20347;-62
2021/11/15 00:37:36;;;;;;;;;;;;;;;8.94;100.00;100039.53;5058535;28;20055;-62
2021/11/15 00:40:02;;;;;;;;;;;;;;;8.71;100.00;100039.72;5057137;28;20014;-62
2021/11/15 00:42:28;;;;;;;;;;;;;;;8.06;100.00;100041.84;5060297;28;19978;-62
2021/11/15 00:44:53;;;;;;;;;;;;;;;8.66;100.00;100044.06;5059925;28;19959;-62
2021/11/15 00:47:18;;;;;;;;;;;;;;;8.04;100.00;100049.53;5057414;28;19916;-62
2021/11/15 00:49:45;;;;;;;;;;;;;;;8.23;100.00;100059.69;5055293;28;19925;-62
2021/11/15 00:52:10;;;;;;;;;;;;;;;7.65;100.00;100060.81;5038678;28;19963;-62
2021/11/15 00:54:35;;;;;;;;;;;;;;;8.09;100.00;100062.31;5038127;28;20379;-62
2021/11/15 00:57:02;;;;;;;;;;;;;;;7.86;100.00;100073.53;5056272;28;19916;-62
2021/11/15 00:59:28;;;;;;;;;;;;;;;7.88;100.00;100063.28;5056223;28;20291;-62
2021/11/15 01:01:54;;;;;;;;;;;;;;;8.07;100.00;100071.75;5056009;28;19943;-62
2021/11/15 01:04:19;;;;;;;;;;;;;;;8.11;100.00;100070.88;5057233;28;19916;-62
2021/11/15 01:06:44;;;;;;;;;;;;;;;7.78;100.00;100062.47;5056848;28;19985;-62
2021/11/15 01:09:10;;;;;;;;;;;;;;;7.96;100.00;100059.84;5056191;28;20595;-62
2021/11/15 01:11:36;;;;;;;;;;;;;;;7.85;100.00;100066.72;5057446;28;19920;-62
2021/11/15 01:14:01;;;;;;;;;;;;;;;7.45;100.00;100065.97;5055526;28;19967;-62
2021/11/15 01:16:27;;;;;;;;;;;;;;;7.67;100.00;100064.22;5058227;28;20438;-63
2021/11/15 01:18:52;;;;;;;;;;;;;;;7.88;100.00;100069.25;5057492;28;19939;-63
2021/11/15 01:21:18;;;;;;;;;;;;;;;7.97;100.00;100064.09;5055442;28;19919;-63
2021/11/15 01:23:43;;;;;;;;;;;;;;;7.84;100.00;100061.59;5054714;28;19920;-63
2021/11/15 01:26:09;;;;;;;;;;;;;;;7.72;100.00;100057.34;5056251;28;20007;-62
2021/11/15 01:28:35;;;;;;;;;;;;;;;7.83;100.00;100052.19;5054158;28;19932;-62
2021/11/15 01:31:00;;;;;;;;;;;;;;;7.60;100.00;100060.81;5056027;28;19913;-62
2021/11/15 01:33:26;;;;;;;;;;;;;;;7.88;100.00;100058.16;5054830;28;19939;-63
2021/11/15 01:35:51;;;;;;;;;;;;;;;7.47;100.00;100054.84;5054546;28;21064;-63
2021/11/15 01:38:17;;;;;;;;;;;;;;;7.78;100.00;100051.34;5054473;28;20264;-63
2021/11/15 01:40:42;;;;;;;;;;;;;;;8.16;100.00;100049.47;5038372;28;19923;-63
2021/11/15 01:43:07;;;;;;;;;;;;;;;7.83;100.00;100045.34;5055083;28;19940;-62
2021/11/15 01:45:33;;;;;;;;;;;;;;;7.80;100.00;100040.25;5053836;28;20418;-63
2021/11/15 01:47:59;;;;;;;;;;;;;;;7.37;100.00;100040.38;5056701;28;19916;-63
2021/11/15 01:50:25;;;;;;;;;;;;;;;8.10;100.00;100041.81;5056634;28;19917;-63
2021/11/15 01:52:51;;;;;;;;;;;;;;;7.73;100.00;100035.97;5054202;28;19916;-62
2021/11/15 01:55:17;;;;;;;;;;;;;;;7.32;100.00;100034.38;5055164;28;19917;-62
2021/11/15 01:57:42;;;;;;;;;;;;;;;7.52;100.00;100022.38;5051528;28;20295;-63
2021/11/15 02:00:19;;;;;;;;;;;;;;;7.49;100.00;100035.22;5037422;28;20268;-62
2021/11/15 02:02:45;;;;;;;;;;;;;;;7.36;100.00;100023.28;5034309;28;19924;-62
2021/11/15 02:05:11;;;;;;;;;;;;;;;7.51;100.00;100028.38;5052348;28;19916;-62
2021/11/15 02:07:36;;;;;;;;;;;;;;;7.30;100.00;100028.44;5030519;28;19928;-62
2021/11/15 02:10:02;;;;;;;;;;;;;;;7.52;100.00;100030.06;5042048;28;19955;-62
2021/11/15 02:12:28;;;;;;;;;;;;;;;7.51;100.00;100033.50;5042151;28;19920;-62
2021/11/15 02:14:53;;;;;;;;;;;;;;;7.41;100.00;100031.81;5025274;28;19974;-62
2021/11/15 02:17:19;;;;;;;;;;;;;;;7.61;100.00;100030.91;5024402;28;19925;-62
2021/11/15 02:19:44;;;;;;;;;;;;;;;7.40;100.00;100030.09;5025472;28;19916;-62
2021/11/15 02:22:10;;;;;;;;;;;;;;;7.42;100.00;100030.97;5043461;28;19920;-62
2021/11/15 02:24:38;;;;;;;;;;;;;;;7.67;100.00;100029.16;5036963;28;19923;-62
2021/11/15 02:27:04;;;;;;;;;;;;;;;7.41;100.00;100024.13;5041845;28;19917;-62
2021/11/15 02:29:29;;;;;;;;;;;;;;;7.58;100.00;100025.78;5042433;28;19924;-62
2021/11/15 02:31:54;;;;;;;;;;;;;;;7.23;100.00;100017.34;5041993;28;19985;-62
2021/11/15 02:34:20;;;;;;;;;;;;;;;7.41;100.00;100021.56;5042918;28;20098;-62
2021/11/15 02:36:45;;;;;;;;;;;;;;;7.65;100.00;100022.34;5028090;28;19971;-63
2021/11/15 02:39:11;;;;;;;;;;;;;;;7.11;100.00;100017.34;5029311;28;19917;-62
2021/11/15 02:41:36;;;;;;;;;;;;;;;7.21;100.00;100020.78;5045859;28;19920;-62
2021/11/15 02:44:04;;;;;;;;;;;;;;;7.21;100.00;100013.09;5047370;28;19959;-62
2021/11/15 02:46:31;;;;;;;;;;;;;;;7.26;100.00;100012.19;5046781;28;21028;-62
2021/11/15 02:48:56;;;;;;;;;;;;;;;7.65;100.00;100014.66;5047613;28;19921;-63
2021/11/15 02:51:24;;;;;;;;;;;;;;;7.47;100.00;100016.41;5046634;28;19913;-62
2021/11/15 02:53:49;;;;;;;;;;;;;;;7.74;100.00;100006.94;5028599;28;19923;-62
2021/11/15 02:56:15;;;;;;;;;;;;;;;7.95;100.00;100001.69;5045044;28;19917;-62
2021/11/15 02:58:40;;;;;;;;;;;;;;;7.59;100.00;100009.53;5046254;28;19986;-62
2021/11/15 03:01:13;;;;;;;;;;;;;;;7.44;100.00;100013.88;5046392;28;19924;-62
2021/11/15 03:03:39;;;;;;;;;;;;;;;7.75;100.00;100013.75;5046702;28;19917;-63
2021/11/15 03:06:11;;;;;;;;;;;;;;;7.90;100.00;100011.13;5046967;28;19912;-63
2021/11/15 03:08:37;;;;;;;;;;;;;;;8.04;100.00;100005.06;5054428;28;19925;-62
2021/11/15 03:11:04;;;;;;;;;;;;;;;8.28;100.00;100004.94;5054768;28;19956;-62
2021/11/15 03:13:40;;;;;;;;;;;;;;;8.05;100.00;100001.63;5056887;28;19920;-62
2021/11/15 03:16:05;;;;;;;;;;;;;;;8.37;100.00;100004.03;5058127;28;19963;-62
2021/11/15 03:18:32;;;;;;;;;;;;;;;8.09;100.00;100006.72;5058290;28;19989;-62
2021/11/15 03:21:02;;;;;;;;;;;;;;;8.29;100.00;100000.63;5056584;28;19935;-63
2021/11/15 03:23:29;;;;;;;;;;;;;;;7.74;100.00;100006.94;5058464;28;20011;-62
2021/11/15 03:25:55;;;;;;;;;;;;;;;7.92;100.00;100008.56;5055717;28;19916;-63
2021/11/15 03:28:21;;;;;;;;;;;;;;;7.92;100.00;100009.41;5055762;28;19920;-62
2021/11/15 03:30:49;;;;;;;;;;;;;;;7.26;100.00;100001.94;5037822;28;19989;-62
2021/11/15 03:33:14;;;;;;;;;;;;;;;7.65;100.00;100006.97;5055198;28;19925;-62
2021/11/15 03:35:40;;;;;;;;;;;;;;;7.80;100.00;100009.47;5056674;28;20337;-62
2021/11/15 03:38:05;;;;;;;;;;;;;;;7.30;100.00;100013.06;5035596;28;19912;-62
2021/11/15 03:40:31;;;;;;;;;;;;;;;8.04;100.00;100020.47;5056037;28;19916;-62
2021/11/15 03:42:58;;;;;;;;;;;;;;;8.13;100.00;100007.59;5054671;28;19959;-62
2021/11/15 03:45:24;;;;;;;;;;;;;;;7.91;100.00;100015.41;5055395;28;19917;-62
2021/11/15 03:47:50;;;;;;;;;;;;;;;7.84;100.00;100013.69;5054681;28;19923;-62
2021/11/15 03:50:16;;;;;;;;;;;;;;;7.31;100.00;100014.75;5056166;28;20294;-63
2021/11/15 03:52:42;;;;;;;;;;;;;;;7.40;100.00;100019.84;5055266;28;19924;-63
2021/11/15 03:55:09;;;;;;;;;;;;;;;8.07;100.00;100012.75;5056513;28;19976;-63
2021/11/15 03:57:34;;;;;;;;;;;;;;;7.57;100.00;100016.38;5056118;28;19917;-63
2021/11/15 04:00:00;;;;;;;;;;;;;;;7.43;100.00;100019.84;5054731;28;20279;-63
2021/11/15 04:02:29;;;;;;;;;;;;;;;7.56;100.00;100017.25;5054749;28;20364;-63
2021/11/15 04:05:02;;;;;;;;;;;;;;;7.25;100.00;100019.88;5056702;28;19998;-63
2021/11/15 04:07:31;;;;;;;;;;;;;;;7.03;100.00;100017.38;5056702;28;19971;-63
2021/11/15 04:09:58;;;;;;;;;;;;;;;7.37;100.00;100019.00;5053852;28;21043;-62
2021/11/15 04:12:24;;;;;;;;;;;;;;;7.52;100.00;100018.97;5040267;28;19959;-62
2021/11/15 04:14:50;;;;;;;;;;;;;;;7.52;100.00;100014.69;5057595;28;19952;-62
2021/11/15 04:17:15;;;;;;;;;;;;;;;7.12;100.00;100019.91;5055269;28;19917;-63
2021/11/15 04:19:40;;;;;;;;;;;;;;;7.35;100.00;100020.75;5054022;28;20003;-62
2021/11/15 04:22:06;;;;;;;;;;;;;;;7.03;100.00;100014.81;5057004;28;20380;-62
2021/11/15 04:24:31;;;;;;;;;;;;;;;6.73;100.00;100019.94;5056471;28;19955;-62
2021/11/15 04:26:58;;;;;;;;;;;;;;;7.07;100.00;100021.63;5054990;28;20016;-62
2021/11/15 04:29:25;;;;;;;;;;;;;;;7.09;100.00;100024.19;5054791;28;19999;-62
2021/11/15 04:31:50;;;;;;;;;;;;;;;7.31;100.00;100017.31;5036963;28;20007;-62
2021/11/15 04:34:16;;;;;;;;;;;;;;;7.34;100.00;100025.00;5056079;28;19912;-63
2021/11/15 04:36:41;;;;;;;;;;;;;;;7.40;100.00;100024.13;5057349;28;20316;-62
2021/11/15 04:39:06;;;;;;;;;;;;;;;7.52;100.00;100021.53;5056265;28;19912;-62
2021/11/15 04:41:32;;;;;;;;;;;;;;;7.16;100.00;100014.78;5055283;28;19919;-63
2021/11/15 04:43:57;;;;;;;;;;;;;;;7.54;100.00;100018.09;5038278;28;19916;-63
2021/11/15 04:46:23;;;;;;;;;;;;;;;7.28;100.00;100012.22;5055006;28;19913;-62
2021/11/15 04:48:48;;;;;;;;;;;;;;;7.32;100.00;100017.31;5056794;28;20379;-62
2021/11/15 04:51:14;;;;;;;;;;;;;;;7.19;100.00;100020.75;5055523;28;19924;-63
2021/11/15 04:53:39;;;;;;;;;;;;;;;6.96;100.00;100023.34;5057928;28;19916;-63
2021/11/15 04:56:07;;;;;;;;;;;;;;;7.33;100.00;100025.84;5055389;28;19916;-63
2021/11/15 04:58:32;;;;;;;;;;;;;;;6.70;100.00;100013.13;5055766;28;20405;-62
2021/11/15 05:00:58;;;;;;;;;;;;;;;6.91;100.00;100019.91;5056326;28;19925;-62
2021/11/15 05:03:24;;;;;;;;;;;;;;;7.02;100.00;100020.78;5039124;28;20352;-66
2021/11/15 05:05:49;;;;;;;;;;;;;;;6.74;100.00;100007.16;5045028;28;20657;-67
2021/11/15 05:08:15;;;;;;;;;;;;;;;6.92;100.00;100013.97;5045360;28;19972;-67
2021/11/15 05:10:42;;;;;;;;;;;;;;;6.94;100.00;100014.81;5047266;28;19916;-67
2021/11/15 05:13:07;;;;;;;;;;;;;;;7.29;100.00;100017.31;5044081;28;19920;-68
2021/11/15 05:15:33;;;;;;;;;;;;;;;6.56;100.00;100019.94;5044349;28;19963;-67
2021/11/15 05:18:01;;;;;;;;;;;;;;;6.60;100.00;100025.06;5043592;28;19925;-67
2021/11/15 05:20:26;;;;;;;;;;;;;;;6.94;100.00;100012.25;5038417;28;19920;-67
2021/11/15 05:22:52;;;;;;;;;;;;;;;7.03;100.00;100016.53;5044361;28;20287;-67
2021/11/15 05:25:17;;;;;;;;;;;;;;;7.26;100.00;100011.34;5043125;28;19912;-67
2021/11/15 05:27:43;;;;;;;;;;;;;;;7.32;100.00;100007.06;5045109;28;19924;-67
2021/11/15 05:30:11;;;;;;;;;;;;;;;7.03;100.00;100004.56;5044925;28;19921;-67
2021/11/15 05:32:36;;;;;;;;;;;;;;;7.12;100.00;99999.44;5046750;28;19924;-67
2021/11/15 05:35:25;;;;;;;;;;;;;;;6.99;100.00;99994.34;5023998;28;20406;-66
2021/11/15 05:37:51;;;;;;;;;;;;;;;7.07;100.00;99998.59;5044451;28;19944;-67
2021/11/15 05:40:17;;;;;;;;;;;;;;;6.70;100.00;99990.94;5042497;28;19925;-67
2021/11/15 05:42:44;;;;;;;;;;;;;;;6.65;100.00;99990.06;5044370;28;19962;-67
2021/11/15 05:45:10;;;;;;;;;;;;;;;6.60;100.00;99998.63;5035795;28;20051;-67
2021/11/15 05:47:35;;;;;;;;;;;;;;;6.87;100.00;100000.31;5045716;28;20373;-67
2021/11/15 05:50:01;;;;;;;;;;;;;;;7.40;100.00;100001.06;5043539;28;19920;-67
2021/11/15 05:52:29;;;;;;;;;;;;;;;7.48;100.00;99992.50;5045551;28;19931;-68
2021/11/15 05:54:54;;;;;;;;;;;;;;;7.40;100.00;99981.41;5041890;28;19916;-67
2021/11/15 05:57:20;;;;;;;;;;;;;;;7.21;100.00;99979.78;5042396;28;20376;-67
2021/11/15 05:59:47;;;;;;;;;;;;;;;7.61;100.00;99971.94;5042629;28;19912;-67
2021/11/15 06:02:12;;;;;;;;;;;;;;;7.59;100.00;99971.09;5043372;28;19951;-67
2021/11/15 06:04:39;;;;;;;;;;;;;;;7.21;100.00;99972.09;5024706;28;19956;-67
2021/11/15 06:07:04;;;;;;;;;;;;;;;7.17;100.00;99970.38;5044327;28;20446;-67
2021/11/15 06:09:30;;;;;;;;;;;;;;;7.52;100.00;99973.66;5025961;28;19917;-67
2021/11/15 06:11:56;;;;;;;;;;;;;;;7.44;100.00;99972.88;5049738;28;20387;-67
2021/11/15 06:14:26;;;;;;;;;;;;;;;7.13;100.00;99974.66;5048040;28;19939;-67
2021/11/15 06:16:54;;;;;;;;;;;;;;;6.96;100.00;99976.41;5049588;28;19943;-66
2021/11/15 06:19:20;;;;;;;;;;;;;;;7.17;100.00;99986.59;5048151;28;19921;-67
2021/11/15 06:21:46;;;;;;;;;;;;;;;7.14;100.00;99986.63;5047096;28;19955;-67
2021/11/15 06:24:11;;;;;;;;;;;;;;;7.04;100.00;99988.31;5048875;28;19944;-67
2021/11/15 06:26:36;;;;;;;;;;;;;;;6.58;100.00;99995.22;5048740;28;19971;-67
2021/11/15 06:29:02;;;;;;;;;;;;;;;7.13;100.00;99998.56;5048928;28;19916;-67
2021/11/15 06:31:27;;;;;;;;;;;;;;;7.33;100.00;100007.91;5027297;28;19920;-67
2021/11/15 06:33:53;;;;;;;;;;;;;;;7.78;100.00;100006.06;5049882;28;19912;-67
2021/11/15 06:36:22;;;;;;;;;;;;;;;7.53;100.00;99997.63;5047006;28;19952;-67
2021/11/15 06:38:48;;;;;;;;;;;;;;;8.03;100.00;99990.53;5027237;28;19942;-67
2021/11/15 06:41:13;;;;;;;;;;;;;;;7.63;100.00;99990.72;5048108;28;20278;-67
2021/11/15 06:43:39;;;;;;;;;;;;;;;7.81;100.00;99984.69;5046491;28;19916;-67
2021/11/15 06:46:05;;;;;;;;;;;;;;;7.87;100.00;99984.66;5047138;28;19991;-67
2021/11/15 06:48:37;;;;;;;;;;;;;;;8.12;100.00;99985.38;5024367;28;19921;-67
2021/11/15 06:51:02;;;;;;;;;;;;;;;7.82;100.00;99976.09;5044751;28;19913;-67
2021/11/15 06:53:27;;;;;;;;;;;;;;;7.31;100.00;99984.00;5028044;28;20624;-67
2021/11/15 06:55:53;;;;;;;;;;;;;;;7.66;100.00;99983.91;5045283;28;19916;-67
2021/11/15 06:58:21;;;;;;;;;;;;;;;7.59;100.00;99984.75;5027459;28;19917;-67
2021/11/15 07:00:47;;;;;;;;;;;;;;;7.65;100.00;99983.91;5048178;28;20291;-67
2021/11/15 07:03:13;;;;;;;;;;;;;;;7.46;100.00;99989.09;5047760;28;19942;-67
2021/11/15 07:05:42;;;;;;;;;;;;;;;7.36;100.00;99994.25;5047131;28;20400;-67
2021/11/15 07:08:07;;;;;;;;;;;;;;;6.80;100.00;99991.78;5056008;28;19925;-67
2021/11/15 07:10:34;;;;;;;;;;;;;;;7.47;100.00;100003.59;5061193;28;20006;-68
2021/11/15 07:13:00;;;;;;;;;;;;;;;7.29;100.00;100001.09;5062618;28;19912;-68
2021/11/15 07:15:37;;;;;;;;;;;;;;;7.70;100.00;100002.66;5064942;28;19934;-67
2021/11/15 07:18:02;;;;;;;;;;;;;;;7.16;100.00;100004.53;5039096;28;19917;-67
2021/11/15 07:20:28;;;;;;;;;;;;;;;7.13;100.00;100011.38;5061858;28;19912;-67
2021/11/15 07:22:53;;;;;;;;;;;;;;;7.47;100.00;100010.44;5062197;28;19919;-68
2021/11/15 07:25:19;;;;;;;;;;;;;;;7.09;100.00;100019.06;5061974;28;19924;-66
2021/11/15 07:27:52;;;;;;;;;;;;;;;7.09;100.00;100019.94;5037152;28;19935;-67
2021/11/15 07:30:17;;;;;;;;;;;;;;;6.65;100.00;100018.22;5056421;28;20371;-67
2021/11/15 07:32:44;;;;;;;;;;;;;;;6.78;100.00;100013.97;5059963;28;19923;-67
2021/11/15 07:35:09;;;;;;;;;;;;;;;7.20;100.00;100013.94;5059498;28;20388;-67
2021/11/15 07:37:35;;;;;;;;;;;;;;;7.11;100.00;100017.34;5062175;28;19974;-67
2021/11/15 07:40:02;;;;;;;;;;;;;;;7.01;100.00;100016.50;5061686;28;20371;-67
2021/11/15 07:42:28;;;;;;;;;;;;;;;7.17;100.00;100019.06;5061965;28;19919;-67
2021/11/15 07:44:53;;;;;;;;;;;;;;;7.00;100.00;100014.81;5061499;28;19917;-67
2021/11/15 07:47:18;;;;;;;;;;;;;;;7.21;100.00;100020.78;5060566;28;19923;-67
2021/11/15 07:49:50;;;;;;;;;;;;;;;7.50;100.00;100015.53;5061535;28;19916;-67
2021/11/15 07:52:17;;;;;;;;;;;;;;;7.02;100.00;100020.78;5045812;28;20341;-67
2021/11/15 07:54:45;;;;;;;;;;;;;;;7.63;100.00;100021.50;5063974;28;19973;-67
2021/11/15 07:57:10;;;;;;;;;;;;;;;7.03;100.00;100025.06;5064209;28;19917;-67
2021/11/15 07:59:36;;;;;;;;;;;;;;;7.19;100.00;100025.88;5066343;28;19924;-67
2021/11/15 08:02:01;;;;;;;;;;;;;;;7.13;100.00;100020.75;5071590;28;19918;-67
2021/11/15 08:04:27;;;;;;;;;;;;;;;6.90;100.00;100018.22;5071714;28;19935;-67
2021/11/15 08:06:53;;;;;;;;;;;;;;;6.77;100.00;100021.66;5071728;28;19916;-67
2021/11/15 08:09:18;;;;;;;;;;;;;;;7.36;100.00;100023.28;5071813;28;20410;-67
2021/11/15 08:11:44;;;;;;;;;;;;;;;7.06;100.00;100021.63;5034408;28;19970;-67
2021/11/15 08:14:10;;;;;;;;;;;;;;;6.82;100.00;100015.69;5041070;28;20003;-67
2021/11/15 08:16:35;;;;;;;;;;;;;;;6.85;100.00;100020.78;5067579;28;20324;-68
2021/11/15 08:19:00;;;;;;;;;;;;;;;7.19;100.00;100019.91;5071126;28;20318;-68
2021/11/15 08:21:29;;;;;;;;;;;;;;;7.38;100.00;100026.69;5069930;28;19956;-68
2021/11/15 08:23:55;;;;;;;;;;;;;;;7.19;100.00;100019.91;5070887;28;19972;-67
2021/11/15 08:26:39;;;;;;;;;;;;;;;7.13;100.00;100019.03;5047509;28;19999;-68
2021/11/15 08:29:09;;;;;;;;;;;;;;;7.33;100.00;100018.16;5071655;28;19927;-67
2021/11/15 08:31:38;;;;;;;;;;;;;;;7.14;100.00;100032.72;5071688;28;19938;-67
2021/11/15 08:34:04;;;;;;;;;;;;;;;7.75;100.00;100026.56;5053838;28;19919;-67
2021/11/15 08:36:29;;;;;;;;;;;;;;;7.87;100.00;100021.41;5053589;28;20375;-67
2021/11/15 08:38:57;;;;;;;;;;;;;;;7.78;100.00;100011.19;5071037;28;19956;-67
2021/11/15 08:41:32;;;;;;;;;;;;;;;7.47;100.00;100010.44;5053070;28;19916;-67
2021/11/15 08:43:58;;;;;;;;;;;;;;;7.09;100.00;100008.81;5070956;28;19939;-67
2021/11/15 08:46:25;;;;;;;;;;;;;;;7.59;100.00;100015.50;5071274;28;20387;-67
2021/11/15 08:48:50;;;;;;;;;;;;;;;7.63;100.00;100011.25;5071420;28;19960;-67
2021/11/15 08:51:16;;;;;;;;;;;;;;;7.57;100.00;100011.25;5071297;28;20025;-67
2021/11/15 08:53:42;;;;;;;;;;;;;;;7.15;100.00;100013.09;5071367;28;19916;-67
2021/11/15 08:56:10;;;;;;;;;;;;;;;7.63;100.00;100022.34;5071531;28;20375;-67
2021/11/15 08:58:36;;;;;;;;;;;;;;;7.81;100.00;100015.44;5053166;28;19939;-68
2021/11/15 09:01:02;;;;;;;;;;;;;;;7.74;100.00;100009.50;5071228;28;19916;-68
2021/11/15 09:03:27;;;;;;;;;;;;;;;7.52;100.00;100014.69;5071196;28;20002;-67
2021/11/15 09:05:52;;;;;;;;;;;;;;;7.67;100.00;100006.09;5071032;28;20028;-68
2021/11/15 09:08:18;;;;;;;;;;;;;;;7.65;100.00;100010.38;5070603;28;19920;-66
2021/11/15 09:10:44;;;;;;;;;;;;;;;7.65;100.00;100005.25;5064915;28;20303;-68
2021/11/15 09:13:12;;;;;;;;;;;;;;;7.63;100.00;100006.97;5063194;28;19913;-68
2021/11/15 09:15:38;;;;;;;;;;;;;;;6.96;100.00;99997.75;5050609;28;20011;-68
2021/11/15 09:18:03;;;;;;;;;;;;;;;7.56;100.00;100004.44;5051073;28;19996;-67
2021/11/15 09:20:29;;;;;;;;;;;;;;;7.38;100.00;99998.50;5050634;28;19912;-68
2021/11/15 09:22:54;;;;;;;;;;;;;;;7.59;100.00;99999.28;5052922;28;19912;-67
2021/11/15 09:25:19;;;;;;;;;;;;;;;7.07;100.00;99995.16;5071054;28;20463;-68
2021/11/15 09:27:45;;;;;;;;;;;;;;;6.69;100.00;100003.75;5071128;28;20019;-68
2021/11/15 09:30:10;;;;;;;;;;;;;;;6.92;100.00;100001.16;5066646;28;19919;-67
2021/11/15 09:32:36;;;;;;;;;;;;;;;6.60;100.00;100007.16;5051660;28;19928;-67
2021/11/15 09:35:01;;;;;;;;;;;;;;;7.55;100.00;100003.59;5050694;28;19912;-67
2021/11/15 09:37:27;;;;;;;;;;;;;;;7.58;100.00;100005.28;5050504;28;19917;-67
2021/11/15 09:39:55;;;;;;;;;;;;;;;7.13;100.00;100000.28;5050382;28;19913;-67
2021/11/15 09:42:20;;;;;;;;;;;;;;;7.81;100.00;100000.06;5062391;28;19912;-67
2021/11/15 09:44:46;;;;;;;;;;;;;;;7.25;100.00;99999.38;5070583;28;19917;-68
2021/11/15 09:47:11;;;;;;;;;;;;;;;7.41;100.00;100001.06;5070170;28;19920;-68
2021/11/15 09:49:37;;;;;;;;;;;;;;;7.14;100.00;100002.00;5052574;28;20438;-67
2021/11/15 09:52:03;;;;;;;;;;;;;;;6.97;100.00;100006.28;5050437;28;20473;-67
2021/11/15 09:54:28;;;;;;;;;;;;;;;7.52;100.00;99994.19;5070767;28;19912;-67
2021/11/15 09:56:54;;;;;;;;;;;;;;;7.64;100.00;99992.44;5070087;28;19962;-68
2021/11/15 09:59:20;;;;;;;;;;;;;;;7.69;100.00;99994.13;5070087;28;19939;-67
2021/11/15 10:01:48;;;;;;;;;;;;;;;6.81;100.00;99992.63;5066305;28;19913;-68
2021/11/15 10:04:14;;;;;;;;;;;;;;;7.13;100.00;99995.16;5066281;28;20339;-67
2021/11/15 10:06:40;;;;;;;;;;;;;;;6.95;100.00;99997.75;5051794;28;19944;-67
2021/11/15 10:09:05;;;;;;;;;;;;;;;6.94;100.00;99993.50;5069777;28;19970;-67
2021/11/15 10:11:44;;;;;;;;;;;;;;;6.64;100.00;99990.94;5048629;28;19916;-67
2021/11/15 10:14:10;;;;;;;;;;;;;;;6.65;100.00;99982.41;5062936;28;19912;-67
2021/11/15 10:16:35;;;;;;;;;;;;;;;6.77;100.00;99988.38;5070014;28;20280;-67
2021/11/15 10:19:04;;;;;;;;;;;;;;;7.45;100.00;99984.81;5070283;28;20007;-67
2021/11/15 10:21:36;;;;;;;;;;;;;;;7.17;100.00;99981.47;5070372;28;19962;-67
2021/11/15 10:24:13;;;;;;;;;;;;;;;6.80;100.00;99975.59;5036164;28;20268;-67
2021/11/15 10:26:40;;;;;;;;;;;;;;;7.18;100.00;99977.22;5049940;28;19962;-67
2021/11/15 10:29:08;;;;;;;;;;;;;;;6.86;100.00;99975.56;5031397;28;19917;-67
2021/11/15 10:31:45;;;;;;;;;;;;;;;6.55;100.00;99975.59;5064573;28;19912;-68
2021/11/15 10:34:29;;;;;;;;;;;;;;;6.92;100.00;99980.69;5067281;28;19920;-65
2021/11/15 10:36:55;;;;;;;;;;;;;;;6.95;100.00;99972.97;5051348;28;19920;-67
2021/11/15 10:39:26;;;;;;;;;;;;;;;6.73;100.00;99976.41;5069935;28;19912;-68
2021/11/15 10:41:55;;;;;;;;;;;;;;;6.80;100.00;99990.94;5070147;28;19912;-67
2021/11/15 10:44:21;;;;;;;;;;;;;;;6.86;100.00;99985.78;5070162;28;19965;-68
2021/11/15 10:46:46;;;;;;;;;;;;;;;7.20;100.00;99985.75;5052352;28;19999;-68
2021/11/15 10:49:11;;;;;;;;;;;;;;;7.09;100.00;99984.06;5051893;28;20403;-68
2021/11/15 10:51:43;;;;;;;;;;;;;;;7.19;100.00;99989.19;5069995;28;19920;-68
2021/11/15 10:54:42;;;;;;;;;;;;;;;6.81;100.00;99974.72;5069953;28;20346;-65
2021/11/15 10:57:16;;;;;;;;;;;;;;;7.09;100.00;99981.50;5070525;28;19944;-67
2021/11/15 10:59:42;;;;;;;;;;;;;;;7.27;100.00;99975.47;5073560;28;19913;-67
2021/11/15 11:02:27;;;;;;;;;;;;;;;7.00;100.00;99966.16;5073220;28;19999;-67
2021/11/15 11:05:05;;;;;;;;;;;;;;;7.01;100.00;99972.13;5055436;28;19913;-67
2021/11/15 11:07:30;;;;;;;;;;;;;;;7.34;100.00;99973.75;5051196;28;19921;-67
2021/11/15 11:09:59;;;;;;;;;;;;;;;6.96;100.00;99982.38;5070857;28;19920;-67
2021/11/15 11:12:30;;;;;;;;;;;;;;;7.06;100.00;99988.34;5073499;28;19912;-67
2021/11/15 11:15:16;;;;;;;;;;;;;;;7.13;100.00;99985.75;5073176;28;19912;-67
2021/11/15 11:18:01;;;;;;;;;;;;;;;7.27;100.00;99990.00;5072676;28;19974;-68
2021/11/15 11:20:49;;;;;;;;;;;;;;;7.17;100.00;99980.63;5071664;28;20035;-67
2021/11/15 11:25:55;;;;;;;;;;;;;;;7.08;100.00;99978.94;5051908;28;19912;-68
2021/11/15 11:28:33;;;;;;;;;;;;;;;7.54;100.00;99977.09;5067555;28;20280;-67
2021/11/15 11:30:59;;;;;;;;;;;;;;;7.19;100.00;99984.06;5070170;28;20518;-68
2021/11/15 11:33:26;;;;;;;;;;;;;;;6.78;100.00;99982.41;5073337;28;19913;-67
2021/11/15 11:35:52;;;;;;;;;;;;;;;7.01;100.00;99979.81;5072922;28;19939;-67
2021/11/15 11:38:18;;;;;;;;;;;;;;;7.69;100.00;99990.72;5071589;28;19912;-68
2021/11/15 11:40:46;;;;;;;;;;;;;;;7.56;100.00;99976.25;5039829;28;19917;-67
2021/11/15 11:43:11;;;;;;;;;;;;;;;7.51;100.00;99974.53;5038049;28;19916;-68
2021/11/15 11:45:37;;;;;;;;;;;;;;;7.63;100.00;99963.38;5063444;28;19927;-65
2021/11/15 11:48:02;;;;;;;;;;;;;;;7.89;100.00;99950.44;5062317;28;19924;-66
2021/11/15 11:50:36;;;;;;;;;;;;;;;8.23;100.00;99947.63;5062469;28;19939;-66
2021/11/15 11:53:03;;;;;;;;;;;;;;;7.17;100.00;99952.47;5034759;28;19920;-65
2021/11/15 11:55:28;;;;;;;;;;;;;;;7.10;100.00;99944.78;5063388;28;19913;-67
2021/11/15 11:57:53;;;;;;;;;;;;;;;7.68;100.00;99942.84;5039052;28;19916;-65
2021/11/15 12:00:19;;;;;;;;;;;;;;;7.54;100.00;99935.22;5037258;28;19972;-65
2021/11/15 12:02:45;;;;;;;;;;;;;;;7.69;100.00;99926.63;5062084;28;19916;-65
2021/11/15 12:05:15;;;;;;;;;;;;;;;8.15;100.00;99924.59;5062138;28;20303;-66
2021/11/15 12:07:46;;;;;;;;;;;;;;;8.29;100.00;99929.63;5056176;28;19978;-66
2021/11/15 12:10:41;;;;;;;;;;;;;;;7.78;100.00;99923.13;5047689;28;19925;-66
2021/11/15 12:34:49;;;;;;;;;;;;;;;7.44;100.00;99919.03;4981118;28;19925;-67
2021/11/15 12:37:37;;;;;;;;;;;;;;;7.74;100.00;99909.50;4982663;28;20290;-67
2021/11/15 12:40:27;;;;;;;;;;;;;;;7.57;100.00;99908.72;4984921;28;19921;-67
2021/11/15 12:43:12;;;;;;;;;;;;;;;7.38;100.00;99902.84;4982623;28;20138;-67
2021/11/15 12:45:41;;;;;;;;;;;;;;;7.75;100.00;99901.81;4982952;28;20083;-67
2021/11/15 12:48:10;;;;;;;;;;;;;;;7.44;100.00;99895.97;4965096;28;19953;-67
2021/11/15 12:53:40;;;;;;;;;;;;;;;7.54;100.00;99895.06;5056469;28;20005;-67
2021/11/15 12:56:06;;;;;;;;;;;;;;;7.69;100.00;99890.72;5038689;28;20399;-67
2021/11/15 12:58:49;;;;;;;;;;;;;;;7.30;100.00;99890.91;5057149;28;19920;-67
2021/11/15 13:01:18;;;;;;;;;;;;;;;7.50;100.00;99882.28;5053787;28;20613;-67
2021/11/15 13:03:49;;;;;;;;;;;;;;;8.20;100.00;99880.94;5053809;28;19912;-67
2021/11/15 13:06:18;;;;;;;;;;;;;;;7.21;100.00;99882.44;5049737;28;19928;-67
2021/11/15 13:09:11;;;;;;;;;;;;;;;7.14;100.00;99879.03;5036588;28;20032;-67